createdAt,value
2022-11-18T00:00:05.815Z,5.10
2022-11-18T00:02:38.724Z,5.83
2022-11-18T00:05:09.930Z,5.13
2022-11-18T00:07:38.923Z,4.80
2022-11-18T00:10:12.720Z,4.47
2022-11-18T00:13:02.802Z,4.27
2022-11-18T00:15:32.720Z,3.73
2022-11-18T00:18:04.117Z,4.20
2022-11-18T00:20:37.404Z,4.23
2022-11-18T00:23:11.240Z,4.30
2022-11-18T00:25:41.803Z,4.73
2022-11-18T00:28:14.525Z,4.97
2022-11-18T00:30:47.277Z,3.63
2022-11-18T00:33:17.119Z,3.20
2022-11-18T00:35:55.385Z,3.63
2022-11-18T00:38:29.906Z,3.20
2022-11-18T00:41:10.089Z,3.03
2022-11-18T00:43:38.309Z,3.23
2022-11-18T00:46:13.685Z,3.27
2022-11-18T00:48:51.705Z,3.57
2022-11-18T00:51:25.179Z,3.30
2022-11-18T00:53:59.452Z,3.20
2022-11-18T00:56:33.288Z,2.83
2022-11-18T00:59:09.877Z,2.67
2022-11-18T01:01:41.786Z,2.00
2022-11-18T01:04:14.640Z,1.77
2022-11-18T01:06:48.731Z,2.97
2022-11-18T01:09:22.138Z,2.10
2022-11-18T01:12:15.249Z,1.63
2022-11-18T01:14:47.490Z,1.80
2022-11-18T01:17:16.326Z,1.93
2022-11-18T01:19:45.648Z,2.00
2022-11-18T01:22:15.304Z,2.00
2022-11-18T01:24:52.649Z,2.07
2022-11-18T01:27:27.321Z,1.70
2022-11-18T01:30:07.512Z,2.40
2022-11-18T01:32:40.450Z,2.17
2022-11-18T01:35:13.864Z,2.70
2022-11-18T01:37:47.911Z,2.87
2022-11-18T01:40:17.647Z,2.57
2022-11-18T01:42:48.638Z,4.30
2022-11-18T01:45:28.427Z,2.17
2022-11-18T01:48:06.746Z,2.10
2022-11-18T01:50:38.591Z,1.27
2022-11-18T01:53:13.218Z,1.00
2022-11-18T01:55:48.571Z,0.83
2022-11-18T01:58:28.565Z,1.27
2022-11-18T02:00:57.272Z,1.30
2022-11-18T02:03:31.036Z,0.80
2022-11-18T02:06:01.331Z,0.90
2022-11-18T02:08:31.452Z,1.00
2022-11-18T02:11:01.652Z,1.00
2022-11-18T02:13:32.559Z,1.07
2022-11-18T02:16:09.525Z,0.80
2022-11-18T02:18:49.642Z,0.77
2022-11-18T02:21:29.880Z,1.20
2022-11-18T02:24:16.363Z,1.10
2022-11-18T02:27:26.358Z,1.20
2022-11-18T02:30:00.165Z,1.20
2022-11-18T02:32:35.304Z,1.30
2022-11-18T02:35:11.332Z,1.20
2022-11-18T02:37:50.792Z,1.40
2022-11-18T02:40:25.562Z,1.50
2022-11-18T02:43:00.330Z,1.60
2022-11-18T02:45:35.452Z,1.50
2022-11-18T02:48:16.247Z,1.60
2022-11-18T02:50:55.050Z,1.70
2022-11-18T02:53:26.766Z,1.97
2022-11-18T02:55:56.863Z,1.47
2022-11-18T02:58:27.826Z,1.50
2022-11-18T03:01:12.045Z,1.60
2022-11-18T03:03:46.268Z,1.50
2022-11-18T03:06:26.643Z,1.50
2022-11-18T03:09:10.536Z,1.63
2022-11-18T03:11:48.065Z,1.27
2022-11-18T03:14:27.603Z,2.30
2022-11-18T03:17:05.203Z,1.30
2022-11-18T03:19:53.857Z,1.27
2022-11-18T03:22:44.010Z,1.27
2022-11-18T03:25:22.766Z,1.30
2022-11-18T03:28:01.685Z,1.20
2022-11-18T03:30:39.716Z,1.30
2022-11-18T03:33:23.310Z,1.50
2022-11-18T03:36:05.776Z,1.30
2022-11-18T03:38:40.674Z,1.40
2022-11-18T03:41:15.347Z,1.30
2022-11-18T03:43:51.920Z,2.53
2022-11-18T03:46:26.890Z,1.17
2022-11-18T03:49:01.980Z,1.23
2022-11-18T03:51:42.126Z,1.30
2022-11-18T03:54:17.393Z,1.30
2022-11-18T03:56:53.200Z,1.30
2022-11-18T03:59:30.515Z,1.37
2022-11-18T04:02:08.598Z,1.20
2022-11-18T04:04:42.681Z,1.00
2022-11-18T04:07:19.041Z,1.10
2022-11-18T04:09:54.305Z,0.90
2022-11-18T04:12:27.761Z,1.50
2022-11-18T04:15:07.127Z,1.60
2022-11-18T04:17:44.394Z,1.50
2022-11-18T04:20:24.125Z,1.17
2022-11-18T04:23:01.269Z,1.33
2022-11-18T04:25:34.957Z,1.23
2022-11-18T04:28:04.211Z,1.13
2022-11-18T04:30:51.868Z,0.90
2022-11-18T04:33:22.466Z,1.20
2022-11-18T04:36:02.546Z,1.40
2022-11-18T04:38:33.326Z,1.30
2022-11-18T04:41:05.535Z,1.30
2022-11-18T04:43:37.809Z,1.10
2022-11-18T04:46:09.819Z,1.03
2022-11-18T04:48:53.286Z,1.07
2022-11-18T04:51:32.269Z,1.20
2022-11-18T04:54:08.447Z,1.30
2022-11-18T04:56:38.220Z,1.20
2022-11-18T04:59:14.053Z,1.43
2022-11-18T05:01:43.603Z,0.97
2022-11-18T05:04:16.754Z,1.43
2022-11-18T05:07:00.989Z,1.10
2022-11-18T05:09:44.688Z,1.57
2022-11-18T05:12:37.748Z,1.90
2022-11-18T05:15:11.656Z,1.80
2022-11-18T05:17:44.408Z,1.87
2022-11-18T05:20:18.767Z,1.50
2022-11-18T05:22:50.480Z,1.83
2022-11-18T05:25:19.735Z,1.70
2022-11-18T05:27:48.438Z,1.30
2022-11-18T05:30:17.214Z,1.97
2022-11-18T05:32:45.541Z,1.70
2022-11-18T05:35:14.277Z,2.10
2022-11-18T05:37:42.841Z,2.17
2022-11-18T05:40:13.981Z,1.40
2022-11-18T05:43:00.033Z,1.90
2022-11-18T05:45:29.004Z,1.50
2022-11-18T05:48:04.779Z,1.60
2022-11-18T05:50:36.569Z,1.60
2022-11-18T05:53:06.498Z,2.60
2022-11-18T05:55:41.315Z,2.23
2022-11-18T05:58:10.012Z,2.03
2022-11-18T06:00:38.521Z,1.83
2022-11-18T06:03:14.208Z,2.37
2022-11-18T06:05:47.316Z,1.87
2022-11-18T06:08:19.338Z,1.80
2022-11-18T06:10:50.970Z,3.17
2022-11-18T06:13:24.017Z,2.50
2022-11-18T06:15:52.768Z,2.83
2022-11-18T06:18:25.958Z,2.70
2022-11-18T06:20:56.808Z,3.10
2022-11-18T06:23:26.035Z,2.57
2022-11-18T06:25:56.636Z,2.17
2022-11-18T06:28:26.109Z,3.40
2022-11-18T06:30:55.615Z,2.40
2022-11-18T06:33:25.276Z,2.40
2022-11-18T06:35:53.980Z,1.70
2022-11-18T06:38:25.713Z,2.63
2022-11-18T06:40:55.708Z,2.37
2022-11-18T06:43:43.185Z,2.63
2022-11-18T06:46:31.377Z,2.70
2022-11-18T06:49:01.054Z,2.87
2022-11-18T06:51:31.064Z,2.63
2022-11-18T06:54:02.733Z,2.97
2022-11-18T06:56:36.824Z,2.67
2022-11-18T06:59:05.352Z,2.60
2022-11-18T07:01:37.224Z,3.00
2022-11-18T07:04:06.494Z,2.90
2022-11-18T07:06:37.116Z,3.10
2022-11-18T07:09:07.902Z,2.83
2022-11-18T07:11:40.564Z,3.07
2022-11-18T07:14:09.522Z,2.73
2022-11-18T07:16:38.911Z,2.73
2022-11-18T07:19:11.448Z,2.10
2022-11-18T07:21:40.867Z,3.27
2022-11-18T07:24:12.827Z,3.33
2022-11-18T07:26:43.715Z,3.03
2022-11-18T07:29:12.101Z,3.43
2022-11-18T07:31:41.037Z,3.33
2022-11-18T07:34:10.692Z,2.70
2022-11-18T07:36:39.291Z,2.70
2022-11-18T07:39:09.287Z,2.77
2022-11-18T07:41:40.869Z,2.60
2022-11-18T07:44:13.506Z,3.23
2022-11-18T07:46:42.507Z,3.07
2022-11-18T07:49:16.003Z,3.00
2022-11-18T07:51:44.805Z,3.23
2022-11-18T07:54:16.597Z,2.97
2022-11-18T07:56:45.150Z,3.00
2022-11-18T07:59:15.356Z,3.20
2022-11-18T08:01:43.760Z,11.43
2022-11-18T08:04:16.813Z,7.40
2022-11-18T08:06:46.342Z,3.33
2022-11-18T08:09:15.397Z,3.20
2022-11-18T08:11:45.637Z,2.87
2022-11-18T08:14:15.936Z,3.30
2022-11-18T08:16:44.611Z,2.30
2022-11-18T08:19:14.559Z,2.63
2022-11-18T08:21:43.600Z,2.50
2022-11-18T08:24:12.647Z,2.17
2022-11-18T08:26:41.538Z,2.40
2022-11-18T08:29:10.607Z,2.00
2022-11-18T08:31:41.085Z,2.20
2022-11-18T08:34:10.109Z,2.17
2022-11-18T08:36:42.491Z,2.70
2022-11-18T08:39:12.871Z,3.20
2022-11-18T08:41:47.173Z,2.70
2022-11-18T08:44:17.723Z,2.53
2022-11-18T08:46:47.715Z,2.13
2022-11-18T08:49:16.701Z,2.40
2022-11-18T08:51:45.645Z,1.77
2022-11-18T08:54:14.265Z,2.03
2022-11-18T08:56:43.619Z,1.83
2022-11-18T08:59:12.416Z,1.80
2022-11-18T09:01:43.671Z,2.60
2022-11-18T09:04:13.935Z,2.47
2022-11-18T09:06:43.285Z,2.00
2022-11-18T09:09:12.047Z,1.70
2022-11-18T09:11:41.278Z,2.10
2022-11-18T09:17:01.531Z,1.90
2022-11-18T09:19:48.357Z,1.60
2022-11-18T09:22:18.938Z,2.03
2022-11-18T09:24:49.985Z,1.53
2022-11-18T09:27:19.883Z,1.60
2022-11-18T09:29:49.091Z,1.30
2022-11-18T09:32:17.629Z,1.40
2022-11-18T09:34:47.945Z,1.77
2022-11-18T09:37:17.579Z,1.60
2022-11-18T09:39:48.273Z,1.40
2022-11-18T09:42:43.416Z,2.23
2022-11-18T09:45:24.726Z,1.60
2022-11-18T09:47:59.973Z,1.57
2022-11-18T09:53:23.529Z,1.50
2022-11-18T09:55:54.476Z,1.90
2022-11-18T09:58:29.017Z,1.13
2022-11-18T10:00:57.563Z,1.60
2022-11-18T10:03:30.819Z,1.20
2022-11-18T10:06:09.647Z,1.30
2022-11-18T10:08:46.260Z,2.10
2022-11-18T10:11:18.215Z,1.50
2022-11-18T10:14:01.233Z,1.10
2022-11-18T10:16:42.323Z,2.20
2022-11-18T10:19:21.564Z,2.40
2022-11-18T10:22:02.068Z,1.60
2022-11-18T10:24:37.972Z,1.60
2022-11-18T10:27:15.016Z,1.50
2022-11-18T10:29:46.672Z,1.33
2022-11-18T10:32:16.767Z,1.23
2022-11-18T10:34:50.947Z,1.40
2022-11-18T10:38:00.286Z,1.40
2022-11-18T10:40:27.520Z,1.30
2022-11-18T10:42:58.491Z,3.77
2022-11-18T10:45:30.828Z,2.13
2022-11-18T10:48:03.665Z,1.40
2022-11-18T10:50:36.163Z,3.07
2022-11-18T10:53:07.542Z,2.87
2022-11-18T10:55:36.124Z,1.60
2022-11-18T10:58:16.651Z,1.70
2022-11-18T11:00:48.284Z,1.27
2022-11-18T11:03:42.226Z,1.70
2022-11-18T11:06:38.511Z,2.17
2022-11-18T11:09:11.305Z,1.40
2022-11-18T11:11:43.834Z,0.90
2022-11-18T11:14:21.706Z,2.23
2022-11-18T11:16:58.932Z,1.20
2022-11-18T11:19:32.680Z,1.30
2022-11-18T11:22:02.167Z,1.07
2022-11-18T11:24:34.596Z,1.67
2022-11-18T11:30:22.347Z,0.90
2022-11-18T11:33:31.371Z,1.30
2022-11-18T11:36:20.224Z,0.97
2022-11-18T11:39:04.632Z,1.13
2022-11-18T11:41:46.473Z,1.00
2022-11-18T11:44:53.352Z,1.00
2022-11-18T11:47:52.263Z,1.17
2022-11-18T11:50:32.375Z,1.00
2022-11-18T11:53:17.723Z,0.97
2022-11-18T11:56:02.342Z,1.10
2022-11-18T11:59:03.300Z,1.20
2022-11-18T12:01:41.294Z,1.43
2022-11-18T12:04:28.678Z,1.20
2022-11-18T12:06:58.889Z,1.10
2022-11-18T12:09:45.236Z,1.80
2022-11-18T12:12:40.562Z,1.80
2022-11-18T12:15:37.493Z,1.20
2022-11-18T12:18:16.139Z,1.03
2022-11-18T12:20:50.718Z,1.47
2022-11-18T12:23:30.469Z,1.53
2022-11-18T12:26:09.877Z,1.60
2022-11-18T12:28:42.565Z,2.53
2022-11-18T12:31:37.879Z,3.87
2022-11-18T12:34:32.891Z,1.63
2022-11-18T12:38:02.301Z,2.40
2022-11-18T12:40:53.279Z,3.30
2022-11-18T12:43:59.064Z,1.00
2022-11-18T12:46:51.149Z,2.10
2022-11-18T12:50:12.255Z,1.00
2022-11-18T12:52:53.896Z,0.90
2022-11-18T12:55:31.627Z,1.30
2022-11-18T12:58:01.231Z,1.50
2022-11-18T13:00:52.805Z,1.60
2022-11-18T13:03:34.778Z,1.00
2022-11-18T13:06:10.058Z,1.23
2022-11-18T13:08:43.871Z,1.30
2022-11-18T13:11:35.668Z,0.93
2022-11-18T13:14:26.139Z,2.00
2022-11-18T13:17:12.085Z,3.27
2022-11-18T13:19:44.303Z,2.13
2022-11-18T13:22:37.815Z,1.87
2022-11-18T13:25:08.053Z,1.70
2022-11-18T13:27:55.464Z,1.63
2022-11-18T13:30:26.354Z,1.30
2022-11-18T13:32:59.965Z,1.00
2022-11-18T13:35:32.879Z,0.93
2022-11-18T13:38:03.251Z,0.87
2022-11-18T13:40:34.744Z,0.80
2022-11-18T13:43:05.189Z,1.13
2022-11-18T13:45:38.812Z,1.10
2022-11-18T13:48:15.520Z,1.23
2022-11-18T13:50:53.371Z,1.27
2022-11-18T13:53:31.967Z,1.40
2022-11-18T13:56:04.707Z,3.40
2022-11-18T13:59:10.372Z,1.40
2022-11-18T14:01:37.862Z,1.00
2022-11-18T14:04:09.584Z,1.17
2022-11-18T14:06:41.489Z,1.20
2022-11-18T14:09:22.272Z,1.10
2022-11-18T14:12:02.121Z,0.90
2022-11-18T14:14:34.816Z,1.10
2022-11-18T14:17:20.800Z,1.00
2022-11-18T14:19:53.269Z,1.50
2022-11-18T14:22:26.363Z,0.90
2022-11-18T14:24:58.298Z,1.33
2022-11-18T14:27:42.213Z,1.60
2022-11-18T14:30:35.434Z,1.10
2022-11-18T14:33:16.561Z,1.20
2022-11-18T14:35:46.490Z,1.20
2022-11-18T14:38:38.335Z,1.10
2022-11-18T14:41:12.225Z,1.60
2022-11-18T14:43:41.815Z,1.67
2022-11-18T14:46:20.035Z,1.53
2022-11-18T14:48:50.942Z,1.10
2022-11-18T14:51:21.590Z,1.30
2022-11-18T14:53:56.989Z,1.00
2022-11-18T14:56:32.926Z,1.50
2022-11-18T14:59:02.624Z,1.47
2022-11-18T15:01:35.172Z,2.40
2022-11-18T15:04:05.095Z,3.73
2022-11-18T15:06:36.242Z,1.97
2022-11-18T15:09:08.999Z,2.07
2022-11-18T15:11:38.361Z,1.33
2022-11-18T15:14:07.460Z,1.80
2022-11-18T15:16:36.617Z,3.70
2022-11-18T15:19:06.892Z,2.90
2022-11-18T15:21:36.308Z,2.30
2022-11-18T15:24:06.965Z,1.80
2022-11-18T15:26:40.700Z,2.47
2022-11-18T15:29:17.577Z,1.90
2022-11-18T15:31:46.101Z,1.43
2022-11-18T15:34:17.410Z,1.33
2022-11-18T15:36:48.313Z,1.40
2022-11-18T15:39:18.392Z,1.10
2022-11-18T15:41:46.988Z,1.20
2022-11-18T15:44:16.229Z,1.43
2022-11-18T15:46:49.183Z,1.23
2022-11-18T15:49:21.833Z,1.60
2022-11-18T15:51:50.889Z,1.30
2022-11-18T15:54:21.492Z,1.33
2022-11-18T15:56:50.603Z,1.50
2022-11-18T15:59:19.632Z,1.50
2022-11-18T16:01:50.615Z,1.87
2022-11-18T16:04:20.875Z,1.60
2022-11-18T16:06:53.672Z,1.20
2022-11-18T16:09:46.693Z,1.90
2022-11-18T16:12:32.699Z,2.50
2022-11-18T16:15:20.659Z,2.33
2022-11-18T16:17:49.615Z,2.97
2022-11-18T16:20:20.559Z,1.57
2022-11-18T16:22:49.598Z,2.73
2022-11-18T16:25:24.923Z,3.80
2022-11-18T16:27:53.963Z,6.57
2022-11-18T16:30:40.922Z,2.90
2022-11-18T16:33:10.531Z,4.30
2022-11-18T16:35:43.542Z,2.73
2022-11-18T16:38:13.218Z,2.53
2022-11-18T16:40:45.372Z,2.23
2022-11-18T16:43:14.810Z,2.10
2022-11-18T16:45:52.696Z,2.57
2022-11-18T16:48:21.665Z,4.83
2022-11-18T16:51:00.840Z,3.70
2022-11-18T16:53:30.499Z,2.30
2022-11-18T16:56:04.943Z,1.90
2022-11-18T16:58:34.583Z,1.30
2022-11-18T17:01:22.244Z,1.40
2022-11-18T17:03:53.484Z,1.87
2022-11-18T17:06:22.849Z,1.50
2022-11-18T17:08:51.337Z,1.67
2022-11-18T17:11:21.383Z,2.07
2022-11-18T17:13:54.792Z,1.90
2022-11-18T17:16:34.682Z,1.50
2022-11-18T17:19:10.185Z,2.00
2022-11-18T17:21:41.038Z,2.00
2022-11-18T17:24:13.142Z,1.50
2022-11-18T17:26:43.618Z,2.20
2022-11-18T17:29:13.560Z,2.03
2022-11-18T17:31:42.981Z,2.07
2022-11-18T17:34:12.056Z,2.10
2022-11-18T17:36:43.387Z,2.20
2022-11-18T17:39:17.557Z,2.10
2022-11-18T17:42:05.996Z,1.53
2022-11-18T17:44:34.613Z,1.17
2022-11-18T17:47:05.414Z,2.00
2022-11-18T17:49:35.624Z,2.30
2022-11-18T17:52:06.655Z,1.77
2022-11-18T17:54:34.830Z,2.30
2022-11-18T17:57:05.050Z,2.30
2022-11-18T17:59:34.507Z,2.13
2022-11-18T18:02:03.434Z,2.03
2022-11-18T18:04:33.988Z,1.80
2022-11-18T18:07:02.969Z,1.70
2022-11-18T18:09:32.387Z,1.43
2022-11-18T18:12:21.776Z,2.10
2022-11-18T18:14:52.295Z,2.23
2022-11-18T18:17:24.313Z,2.17
2022-11-18T18:19:56.526Z,2.10
2022-11-18T18:22:26.949Z,1.87
2022-11-18T18:24:55.855Z,2.37
2022-11-18T18:27:24.445Z,2.37
2022-11-18T18:29:55.968Z,3.00
2022-11-18T18:32:25.634Z,3.17
2022-11-18T18:34:56.126Z,2.50
2022-11-18T18:37:26.269Z,2.60
2022-11-18T18:39:55.263Z,2.00
2022-11-18T18:42:24.903Z,1.47
2022-11-18T18:45:12.800Z,2.00
2022-11-18T18:47:41.615Z,2.50
2022-11-18T18:50:10.811Z,1.90
2022-11-18T18:52:39.425Z,1.73
2022-11-18T18:55:09.196Z,1.83
2022-11-18T18:57:38.193Z,2.00
2022-11-18T19:00:12.181Z,2.20
2022-11-18T19:02:41.443Z,2.13
2022-11-18T19:05:10.768Z,2.70
2022-11-18T19:07:39.350Z,2.00
2022-11-18T19:10:08.734Z,2.10
2022-11-18T19:12:52.163Z,2.17
2022-11-18T19:15:23.126Z,2.20
2022-11-18T19:17:51.881Z,2.50
2022-11-18T19:20:36.554Z,2.30
2022-11-18T19:23:10.135Z,2.30
2022-11-18T19:25:41.400Z,1.90
2022-11-18T19:28:12.048Z,2.03
2022-11-18T19:30:41.764Z,1.70
2022-11-18T19:33:13.134Z,2.17
2022-11-18T19:35:44.829Z,2.17
2022-11-18T19:38:12.925Z,1.70
2022-11-18T19:40:42.676Z,2.10
2022-11-18T19:43:16.760Z,2.43
2022-11-18T19:45:55.214Z,2.37
2022-11-18T19:48:26.943Z,2.30
2022-11-18T19:51:06.432Z,2.43
2022-11-18T19:53:39.882Z,2.00
2022-11-18T19:56:19.340Z,2.70
2022-11-18T19:58:50.248Z,2.10
2022-11-18T20:01:24.121Z,1.80
2022-11-18T20:03:55.463Z,2.53
2022-11-18T20:06:24.595Z,2.60
2022-11-18T20:08:56.009Z,2.67
2022-11-18T20:11:25.867Z,2.30
2022-11-18T20:13:58.942Z,2.70
2022-11-18T20:16:29.361Z,3.10
2022-11-18T20:18:59.328Z,3.20
2022-11-18T20:21:29.917Z,2.93
2022-11-18T20:23:59.900Z,3.40
2022-11-18T20:26:31.301Z,2.37
2022-11-18T20:29:02.115Z,2.73
2022-11-18T20:31:33.895Z,2.53
2022-11-18T20:34:03.580Z,2.40
2022-11-18T20:36:33.655Z,3.50
2022-11-18T20:39:04.331Z,3.23
2022-11-18T20:41:36.593Z,3.10
2022-11-18T20:44:05.910Z,2.40
2022-11-18T20:46:36.574Z,2.40
2022-11-18T20:49:06.001Z,2.10
2022-11-18T20:51:36.393Z,2.60
2022-11-18T20:54:09.480Z,2.80
2022-11-18T20:56:41.699Z,2.77
2022-11-18T20:59:12.566Z,2.40
2022-11-18T21:01:42.790Z,2.60
2022-11-18T21:04:13.185Z,3.10
2022-11-18T21:06:41.788Z,3.50
2022-11-18T21:09:12.049Z,3.40
2022-11-18T21:11:40.723Z,4.00
2022-11-18T21:14:23.801Z,2.93
2022-11-18T21:17:00.815Z,3.53
2022-11-18T21:19:30.191Z,3.50
2022-11-18T21:21:58.702Z,3.00
2022-11-18T21:24:31.189Z,3.10
2022-11-18T21:27:01.030Z,3.50
2022-11-18T21:29:30.883Z,3.53
2022-11-18T21:32:02.390Z,3.23
2022-11-18T21:34:32.573Z,2.93
2022-11-18T21:37:02.078Z,3.20
2022-11-18T21:39:30.977Z,3.50
2022-11-18T21:42:00.755Z,3.60
2022-11-18T21:44:33.113Z,3.20
2022-11-18T21:47:03.256Z,3.67
2022-11-18T21:49:36.775Z,3.80
2022-11-18T21:52:05.825Z,3.83
2022-11-18T21:54:37.184Z,3.80
2022-11-18T21:57:07.548Z,3.67
2022-11-18T21:59:35.707Z,3.93
2022-11-18T22:02:05.489Z,3.43
2022-11-18T22:04:51.617Z,3.33
2022-11-18T22:07:25.901Z,3.90
2022-11-18T22:09:57.837Z,4.37
2022-11-18T22:12:26.239Z,4.80
2022-11-18T22:14:57.266Z,4.27
2022-11-18T22:17:29.944Z,3.70
2022-11-18T22:19:58.958Z,3.77
2022-11-18T22:22:30.043Z,3.53
2022-11-18T22:25:02.587Z,4.50
2022-11-18T22:27:31.366Z,3.43
2022-11-18T22:30:02.769Z,3.37
2022-11-18T22:32:34.052Z,2.80
2022-11-18T22:35:05.266Z,2.40
2022-11-18T22:37:33.640Z,2.80
2022-11-18T22:40:02.397Z,2.33
2022-11-18T22:42:48.215Z,2.90
2022-11-18T22:45:18.186Z,2.30
2022-11-18T22:47:48.664Z,2.60
2022-11-18T22:50:17.984Z,3.07
2022-11-18T22:52:47.057Z,2.63
2022-11-18T22:55:16.159Z,3.30
2022-11-18T22:57:45.805Z,2.90
2022-11-18T23:00:16.928Z,3.50
2022-11-18T23:02:46.071Z,4.40
2022-11-18T23:05:17.181Z,4.40
2022-11-18T23:07:47.635Z,3.93
2022-11-18T23:10:17.538Z,5.23
2022-11-18T23:13:03.457Z,4.93
2022-11-18T23:15:35.877Z,5.00
2022-11-18T23:18:08.801Z,6.27
2022-11-18T23:20:41.544Z,6.00
2022-11-18T23:23:13.473Z,6.30
2022-11-18T23:25:45.426Z,6.50
2022-11-18T23:28:14.878Z,5.37
2022-11-18T23:30:50.739Z,5.27
2022-11-18T23:33:20.357Z,4.93
2022-11-18T23:36:00.400Z,4.70
2022-11-18T23:38:30.758Z,5.47
2022-11-18T23:41:07.739Z,5.23
2022-11-18T23:43:37.930Z,5.10
2022-11-18T23:46:21.567Z,5.00
2022-11-18T23:48:54.609Z,4.63
2022-11-18T23:51:32.030Z,4.57
2022-11-18T23:54:02.343Z,4.57
2022-11-18T23:56:37.547Z,4.93
2022-11-18T23:59:07.994Z,4.07
